Santa Cruz, Philippines
Current Conditions -  °F | °C
As of 6:00 AM on Saturday 29 Nov 2014 (Local Time) from RPLL Reporting Station
Few Clouds Few Clouds  
Wind Chill: 81°   Ceiling: Unl
Heat Index: 87°   Visibility: 6mi
Dew Point: 77°   Wind: 5mph
Humidity: 89%   Direction: 90°E
Pressure: 29.85"   Gusts: NA
Location:  14.28°N, 121.42°E
Report Text: RPLL 282200Z 09004KT 060V120 9999 FEW025 27/25 Q1011 NOSIG RMK A2985
Loading
Personal Weather Stations






























Interactive Weather Map New forecast layout! Learn more

10-Day Weather Forecast

Advertisements
Track Severe Weather on mobile